TimeCET,TemperatureF,Dew PointF,Humidity,Sea Level PressureIn,VisibilityMPH,Wind Direction,Wind SpeedMPH,Gust SpeedMPH,PrecipitationIn,Events,Conditions,WindDirDegrees,DateUTC
1:00 AM,51,42,61,30.31,,NW,6.9,,,,,320,2013-01-09 00:00:00
5:00 AM,50.0,39.2,66,30.27,-9999.0,NNW,10.4,-,N/A,,Clear,330,2013-01-09 04:00:00
5:30 AM,50.0,39.2,66,30.24,-9999.0,NW,10.4,-,N/A,,Clear,320,2013-01-09 04:30:00
6:00 AM,50.0,39.2,66,30.24,-9999.0,NNW,10.4,-,N/A,,Clear,330,2013-01-09 05:00:00
6:30 AM,50.0,39.2,66,30.24,-9999.0,NW,9.2,-,N/A,,Clear,320,2013-01-09 05:30:00
7:00 AM,47,36,56,30.27,9,NW,12.7,,,,,320,2013-01-09 06:00:00
7:00 AM,48.2,37.4,66,30.24,-9999.0,NW,12.7,-,N/A,,Clear,320,2013-01-09 06:00:00
7:30 AM,48.2,37.4,66,30.27,-9999.0,NW,12.7,-,N/A,,Clear,320,2013-01-09 06:30:00
8:00 AM,48.2,37.4,66,30.27,-9999.0,NW,11.5,-,N/A,,Clear,320,2013-01-09 07:00:00
8:30 AM,48.2,37.4,66,30.27,6.2,NW,10.4,-,N/A,,Partly Cloudy,320,2013-01-09 07:30:00
9:00 AM,48.2,37.4,66,30.27,6.2,NW,11.5,-,N/A,,Partly Cloudy,310,2013-01-09 08:00:00
9:30 AM,50.0,37.4,62,30.27,6.2,NW,10.4,-,N/A,,Partly Cloudy,320,2013-01-09 08:30:00
10:00 AM,51.8,39.2,62,30.30,6.2,NW,9.2,-,N/A,,Partly Cloudy,310,2013-01-09 09:00:00
10:30 AM,55.4,39.2,54,30.30,6.2,NW,8.1,-,N/A,,Partly Cloudy,320,2013-01-09 09:30:00
11:00 AM,57.2,39.2,51,30.30,6.2,NW,6.9,-,N/A,,Partly Cloudy,310,2013-01-09 10:00:00
11:30 AM,59.0,39.2,48,30.30,6.2,Variable,1.2,-,N/A,,Partly Cloudy,0,2013-01-09 10:30:00
12:00 PM,60.8,44.6,55,30.30,6.2,SSW,8.1,-,N/A,,Partly Cloudy,210,2013-01-09 11:00:00
12:30 PM,60.8,46.4,59,30.30,6.2,SW,11.5,-,N/A,,Partly Cloudy,220,2013-01-09 11:30:00
1:00 PM,60,42,40,30.29,22,SW,15.0,,,,Scattered Clouds,220,2013-01-09 12:00:00
1:00 PM,60.8,42.8,52,30.27,6.2,SW,15.0,-,N/A,,Partly Cloudy,220,2013-01-09 12:00:00
1:30 PM,60.8,48.2,63,30.27,6.2,SW,15.0,-,N/A,,Partly Cloudy,220,2013-01-09 12:30:00
2:00 PM,62.6,48.2,59,30.24,6.2,SW,16.1,-,N/A,,Partly Cloudy,220,2013-01-09 13:00:00
2:30 PM,62.6,50.0,63,30.24,6.2,SW,15.0,-,N/A,,Partly Cloudy,220,2013-01-09 13:30:00
3:00 PM,62.6,48.2,59,30.24,-9999.0,SSW,16.1,-,N/A,,Clear,210,2013-01-09 14:00:00
3:30 PM,62.6,50.0,63,30.24,-9999.0,SSW,10.4,-,N/A,,Clear,210,2013-01-09 14:30:00
4:00 PM,60.8,50.0,68,30.24,6.2,SSW,11.5,-,N/A,,Partly Cloudy,210,2013-01-09 15:00:00
4:30 PM,60.8,50.0,68,30.24,6.2,SW,10.4,-,N/A,,Partly Cloudy,220,2013-01-09 15:30:00
5:00 PM,60.8,50.0,68,30.24,6.2,SSW,8.1,-,N/A,,Partly Cloudy,210,2013-01-09 16:00:00
5:30 PM,60.8,51.8,72,30.24,6.2,SSW,5.8,-,N/A,,Partly Cloudy,200,2013-01-09 16:30:00
6:00 PM,59.0,50.0,72,30.24,6.2,SSW,3.5,-,N/A,,Partly Cloudy,200,2013-01-09 17:00:00
6:30 PM,57.2,50.0,77,30.27,6.2,Variable,1.2,-,N/A,,Partly Cloudy,0,2013-01-09 17:30:00
7:00 PM,55,47,68,30.28,12,NNE,2.3,,,,Clear,30,2013-01-09 18:00:00
7:00 PM,57.2,50.0,77,30.27,-9999.0,Variable,2.3,-,N/A,,Clear,0,2013-01-09 18:00:00
7:30 PM,55.4,48.2,77,30.27,-9999.0,Variable,2.3,-,N/A,,Clear,0,2013-01-09 18:30:00
8:00 PM,53.6,48.2,82,30.27,-9999.0,North,3.5,-,N/A,,Clear,360,2013-01-09 19:00:00
8:30 PM,53.6,48.2,82,30.27,-9999.0,NNE,5.8,-,N/A,,Clear,20,2013-01-09 19:30:00
9:00 PM,53.6,48.2,82,30.27,-9999.0,North,5.8,-,N/A,,Clear,10,2013-01-09 20:00:00
9:30 PM,53.6,46.4,77,30.30,-9999.0,North,5.8,-,N/A,,Clear,10,2013-01-09 20:30:00
10:00 PM,51.8,44.6,76,30.27,-9999.0,NNW,4.6,-,N/A,,Clear,340,2013-01-09 21:00:00
10:30 PM,50.0,44.6,82,30.27,-9999.0,Variable,2.3,-,N/A,,Clear,0,2013-01-09 21:30:00